sensor_id;sensor_type;location;lat;lon;timestamp;P1;durP1;ratioP1;P2;durP2;ratioP2
68188;SDS011;66299;47.514;19.218;2023-08-01T00:00:11;9.07;;;3.60;;
68188;SDS011;66299;47.514;19.218;2023-08-01T00:02:41;11.10;;;3.58;;
68188;SDS011;66299;47.514;19.218;2023-08-01T00:05:10;11.32;;;3.55;;
68188;SDS011;66299;47.514;19.218;2023-08-01T00:07:43;9.90;;;3.60;;
68188;SDS011;66299;47.514;19.218;2023-08-01T00:10:13;12.90;;;3.50;;
68188;SDS011;66299;47.514;19.218;2023-08-01T00:12:43;11.30;;;3.80;;
68188;SDS011;66299;47.514;19.218;2023-08-01T00:15:12;11.40;;;3.63;;
68188;SDS011;66299;47.514;19.218;2023-08-01T00:17:43;12.20;;;3.45;;
68188;SDS011;66299;47.514;19.218;2023-08-01T00:20:13;9.00;;;3.65;;
68188;SDS011;66299;47.514;19.218;2023-08-01T00:22:42;14.18;;;3.17;;
68188;SDS011;66299;47.514;19.218;2023-08-01T00:25:12;9.00;;;3.42;;
68188;SDS011;66299;47.514;19.218;2023-08-01T00:27:42;10.05;;;3.50;;
68188;SDS011;66299;47.514;19.218;2023-08-01T00:30:12;10.00;;;3.58;;
68188;SDS011;66299;47.514;19.218;2023-08-01T00:32:42;11.80;;;3.70;;
68188;SDS011;66299;47.514;19.218;2023-08-01T00:35:11;14.95;;;3.70;;
68188;SDS011;66299;47.514;19.218;2023-08-01T00:37:39;10.88;;;3.80;;
68188;SDS011;66299;47.514;19.218;2023-08-01T00:40:08;10.07;;;3.45;;
68188;SDS011;66299;47.514;19.218;2023-08-01T00:42:40;9.30;;;3.40;;
68188;SDS011;66299;47.514;19.218;2023-08-01T00:45:13;13.35;;;3.83;;
68188;SDS011;66299;47.514;19.218;2023-08-01T00:47:47;11.23;;;3.63;;
68188;SDS011;66299;47.514;19.218;2023-08-01T00:50:16;9.60;;;3.50;;
68188;SDS011;66299;47.514;19.218;2023-08-01T00:52:47;9.48;;;3.65;;
68188;SDS011;66299;47.514;19.218;2023-08-01T00:55:21;10.75;;;3.67;;
68188;SDS011;66299;47.514;19.218;2023-08-01T00:57:53;12.35;;;3.60;;
68188;SDS011;66299;47.514;19.218;2023-08-01T01:00:23;8.63;;;3.55;;
68188;SDS011;66299;47.514;19.218;2023-08-01T01:02:55;14.95;;;3.90;;
68188;SDS011;66299;47.514;19.218;2023-08-01T01:05:25;10.65;;;3.40;;
68188;SDS011;66299;47.514;19.218;2023-08-01T01:08:00;12.65;;;3.83;;
68188;SDS011;66299;47.514;19.218;2023-08-01T01:10:31;10.48;;;3.83;;
68188;SDS011;66299;47.514;19.218;2023-08-01T01:13:04;14.80;;;4.38;;
68188;SDS011;66299;47.514;19.218;2023-08-01T01:15:33;14.25;;;4.07;;
68188;SDS011;66299;47.514;19.218;2023-08-01T01:18:01;10.38;;;3.70;;
68188;SDS011;66299;47.514;19.218;2023-08-01T01:20:33;11.10;;;3.60;;
68188;SDS011;66299;47.514;19.218;2023-08-01T01:23:04;12.27;;;3.88;;
68188;SDS011;66299;47.514;19.218;2023-08-01T01:25:34;11.68;;;3.80;;
68188;SDS011;66299;47.514;19.218;2023-08-01T01:28:06;11.30;;;3.80;;
68188;SDS011;66299;47.514;19.218;2023-08-01T01:30:35;10.93;;;3.75;;
68188;SDS011;66299;47.514;19.218;2023-08-01T01:33:06;10.43;;;3.90;;
68188;SDS011;66299;47.514;19.218;2023-08-01T01:35:39;11.43;;;3.97;;
68188;SDS011;66299;47.514;19.218;2023-08-01T01:38:08;9.23;;;3.88;;
68188;SDS011;66299;47.514;19.218;2023-08-01T01:40:38;10.85;;;4.20;;
68188;SDS011;66299;47.514;19.218;2023-08-01T01:43:07;11.32;;;3.80;;
68188;SDS011;66299;47.514;19.218;2023-08-01T01:45:38;12.05;;;3.95;;
68188;SDS011;66299;47.514;19.218;2023-08-01T01:48:09;11.27;;;3.83;;
68188;SDS011;66299;47.514;19.218;2023-08-01T01:50:41;11.23;;;3.75;;
68188;SDS011;66299;47.514;19.218;2023-08-01T01:53:10;10.90;;;4.00;;
68188;SDS011;66299;47.514;19.218;2023-08-01T01:55:39;10.10;;;3.60;;
68188;SDS011;66299;47.514;19.218;2023-08-01T01:58:12;11.73;;;3.90;;
68188;SDS011;66299;47.514;19.218;2023-08-01T02:00:45;9.32;;;3.75;;
68188;SDS011;66299;47.514;19.218;2023-08-01T02:03:14;10.23;;;3.60;;
68188;SDS011;66299;47.514;19.218;2023-08-01T02:05:46;11.65;;;3.90;;
68188;SDS011;66299;47.514;19.218;2023-08-01T02:08:16;11.63;;;3.88;;
68188;SDS011;66299;47.514;19.218;2023-08-01T02:10:51;10.50;;;4.20;;
68188;SDS011;66299;47.514;19.218;2023-08-01T02:13:20;10.75;;;4.03;;
68188;SDS011;66299;47.514;19.218;2023-08-01T02:15:50;10.73;;;3.97;;
68188;SDS011;66299;47.514;19.218;2023-08-01T02:18:21;12.02;;;3.92;;
68188;SDS011;66299;47.514;19.218;2023-08-01T02:20:53;11.13;;;3.70;;
68188;SDS011;66299;47.514;19.218;2023-08-01T02:23:29;13.48;;;3.83;;
68188;SDS011;66299;47.514;19.218;2023-08-01T02:25:59;11.23;;;3.72;;
68188;SDS011;66299;47.514;19.218;2023-08-01T02:28:28;10.43;;;3.85;;
68188;SDS011;66299;47.514;19.218;2023-08-01T02:30:56;13.68;;;3.90;;
68188;SDS011;66299;47.514;19.218;2023-08-01T02:33:26;12.93;;;3.80;;
68188;SDS011;66299;47.514;19.218;2023-08-01T02:35:56;11.48;;;4.20;;
68188;SDS011;66299;47.514;19.218;2023-08-01T02:38:24;12.80;;;4.15;;
68188;SDS011;66299;47.514;19.218;2023-08-01T02:40:54;11.73;;;4.10;;
68188;SDS011;66299;47.514;19.218;2023-08-01T02:43:27;11.68;;;4.20;;
68188;SDS011;66299;47.514;19.218;2023-08-01T02:45:57;12.90;;;4.18;;
68188;SDS011;66299;47.514;19.218;2023-08-01T02:48:32;12.98;;;4.10;;
68188;SDS011;66299;47.514;19.218;2023-08-01T02:51:04;10.27;;;3.95;;
68188;SDS011;66299;47.514;19.218;2023-08-01T02:53:35;10.55;;;3.78;;
68188;SDS011;66299;47.514;19.218;2023-08-01T02:56:07;12.10;;;3.97;;
68188;SDS011;66299;47.514;19.218;2023-08-01T02:58:37;10.65;;;3.85;;
68188;SDS011;66299;47.514;19.218;2023-08-01T03:01:06;9.90;;;3.90;;
68188;SDS011;66299;47.514;19.218;2023-08-01T03:03:41;11.05;;;4.13;;
68188;SDS011;66299;47.514;19.218;2023-08-01T03:06:13;11.20;;;3.67;;
68188;SDS011;66299;47.514;19.218;2023-08-01T03:08:45;13.48;;;4.10;;
68188;SDS011;66299;47.514;19.218;2023-08-01T03:11:15;12.55;;;4.20;;
68188;SDS011;66299;47.514;19.218;2023-08-01T03:13:46;9.45;;;3.65;;
68188;SDS011;66299;47.514;19.218;2023-08-01T03:16:16;10.50;;;4.07;;
68188;SDS011;66299;47.514;19.218;2023-08-01T03:18:48;10.25;;;4.22;;
68188;SDS011;66299;47.514;19.218;2023-08-01T03:21:19;11.02;;;4.20;;
68188;SDS011;66299;47.514;19.218;2023-08-01T03:23:48;10.27;;;4.25;;
68188;SDS011;66299;47.514;19.218;2023-08-01T03:26:26;10.38;;;4.03;;
68188;SDS011;66299;47.514;19.218;2023-08-01T03:28:57;10.02;;;4.07;;
68188;SDS011;66299;47.514;19.218;2023-08-01T03:31:29;11.10;;;4.18;;
68188;SDS011;66299;47.514;19.218;2023-08-01T03:33:59;14.40;;;4.47;;
68188;SDS011;66299;47.514;19.218;2023-08-01T03:36:31;11.05;;;3.90;;
68188;SDS011;66299;47.514;19.218;2023-08-01T03:39:04;12.48;;;4.00;;
68188;SDS011;66299;47.514;19.218;2023-08-01T03:41:33;13.07;;;4.10;;
68188;SDS011;66299;47.514;19.218;2023-08-01T03:44:04;14.63;;;4.07;;
68188;SDS011;66299;47.514;19.218;2023-08-01T03:46:34;13.18;;;4.07;;
68188;SDS011;66299;47.514;19.218;2023-08-01T03:49:10;10.35;;;4.03;;
68188;SDS011;66299;47.514;19.218;2023-08-01T03:51:42;12.55;;;4.07;;
68188;SDS011;66299;47.514;19.218;2023-08-01T03:54:12;11.75;;;4.20;;
68188;SDS011;66299;47.514;19.218;2023-08-01T03:56:41;10.88;;;4.20;;
68188;SDS011;66299;47.514;19.218;2023-08-01T03:59:14;10.47;;;4.13;;
68188;SDS011;66299;47.514;19.218;2023-08-01T04:01:43;12.60;;;4.68;;
68188;SDS011;66299;47.514;19.218;2023-08-01T04:04:15;12.68;;;4.43;;
68188;SDS011;66299;47.514;19.218;2023-08-01T04:06:49;10.35;;;4.20;;
68188;SDS011;66299;47.514;19.218;2023-08-01T04:09:19;10.50;;;4.25;;
68188;SDS011;66299;47.514;19.218;2023-08-01T04:11:52;11.05;;;4.15;;
68188;SDS011;66299;47.514;19.218;2023-08-01T04:14:24;12.05;;;4.05;;
68188;SDS011;66299;47.514;19.218;2023-08-01T04:16:54;12.35;;;4.38;;
68188;SDS011;66299;47.514;19.218;2023-08-01T04:19:27;12.02;;;4.70;;
68188;SDS011;66299;47.514;19.218;2023-08-01T04:21:59;14.65;;;4.35;;
68188;SDS011;66299;47.514;19.218;2023-08-01T04:24:29;12.60;;;4.10;;
68188;SDS011;66299;47.514;19.218;2023-08-01T04:26:57;11.63;;;4.13;;
68188;SDS011;66299;47.514;19.218;2023-08-01T04:29:26;13.10;;;4.07;;
68188;SDS011;66299;47.514;19.218;2023-08-01T04:31:57;10.30;;;4.00;;
68188;SDS011;66299;47.514;19.218;2023-08-01T04:34:26;11.77;;;4.30;;
68188;SDS011;66299;47.514;19.218;2023-08-01T04:36:56;12.60;;;4.18;;
68188;SDS011;66299;47.514;19.218;2023-08-01T04:39:26;12.23;;;4.40;;
68188;SDS011;66299;47.514;19.218;2023-08-01T04:41:58;13.60;;;4.28;;
68188;SDS011;66299;47.514;19.218;2023-08-01T04:44:38;10.45;;;3.85;;
68188;SDS011;66299;47.514;19.218;2023-08-01T04:47:08;14.48;;;4.10;;
68188;SDS011;66299;47.514;19.218;2023-08-01T04:49:41;11.20;;;3.78;;
68188;SDS011;66299;47.514;19.218;2023-08-01T04:52:17;12.10;;;3.85;;
68188;SDS011;66299;47.514;19.218;2023-08-01T04:54:47;12.73;;;4.38;;
68188;SDS011;66299;47.514;19.218;2023-08-01T04:57:19;12.23;;;4.10;;
68188;SDS011;66299;47.514;19.218;2023-08-01T04:59:49;11.63;;;4.20;;
68188;SDS011;66299;47.514;19.218;2023-08-01T05:02:22;12.65;;;4.28;;
68188;SDS011;66299;47.514;19.218;2023-08-01T05:04:51;14.63;;;3.90;;
68188;SDS011;66299;47.514;19.218;2023-08-01T05:07:23;16.33;;;4.35;;
68188;SDS011;66299;47.514;19.218;2023-08-01T05:09:54;14.30;;;4.20;;
68188;SDS011;66299;47.514;19.218;2023-08-01T05:12:24;17.10;;;4.40;;
68188;SDS011;66299;47.514;19.218;2023-08-01T05:14:55;15.00;;;4.10;;
68188;SDS011;66299;47.514;19.218;2023-08-01T05:17:24;13.98;;;4.20;;
68188;SDS011;66299;47.514;19.218;2023-08-01T05:19:53;10.45;;;4.43;;
68188;SDS011;66299;47.514;19.218;2023-08-01T05:22:24;18.95;;;4.40;;
68188;SDS011;66299;47.514;19.218;2023-08-01T05:24:54;13.13;;;4.07;;
68188;SDS011;66299;47.514;19.218;2023-08-01T05:27:23;11.00;;;4.18;;
68188;SDS011;66299;47.514;19.218;2023-08-01T05:29:55;9.82;;;3.78;;
68188;SDS011;66299;47.514;19.218;2023-08-01T05:32:24;14.80;;;4.20;;
68188;SDS011;66299;47.514;19.218;2023-08-01T05:34:56;16.40;;;4.20;;
68188;SDS011;66299;47.514;19.218;2023-08-01T05:37:26;12.63;;;4.22;;
68188;SDS011;66299;47.514;19.218;2023-08-01T05:39:55;13.10;;;3.60;;
68188;SDS011;66299;47.514;19.218;2023-08-01T05:42:23;11.85;;;4.00;;
68188;SDS011;66299;47.514;19.218;2023-08-01T05:44:51;11.18;;;4.05;;
68188;SDS011;66299;47.514;19.218;2023-08-01T05:47:21;10.63;;;3.90;;
68188;SDS011;66299;47.514;19.218;2023-08-01T05:49:52;23.58;;;4.10;;
68188;SDS011;66299;47.514;19.218;2023-08-01T05:52:21;15.30;;;3.92;;
68188;SDS011;66299;47.514;19.218;2023-08-01T05:54:52;16.88;;;3.65;;
68188;SDS011;66299;47.514;19.218;2023-08-01T05:57:21;15.77;;;3.90;;
68188;SDS011;66299;47.514;19.218;2023-08-01T05:59:49;12.90;;;4.30;;
68188;SDS011;66299;47.514;19.218;2023-08-01T06:02:17;16.73;;;3.97;;
68188;SDS011;66299;47.514;19.218;2023-08-01T06:04:46;14.43;;;3.72;;
68188;SDS011;66299;47.514;19.218;2023-08-01T06:07:15;11.82;;;3.70;;
68188;SDS011;66299;47.514;19.218;2023-08-01T06:09:50;12.75;;;3.78;;
68188;SDS011;66299;47.514;19.218;2023-08-01T06:12:20;16.55;;;3.70;;
68188;SDS011;66299;47.514;19.218;2023-08-01T06:14:48;13.52;;;3.65;;
68188;SDS011;66299;47.514;19.218;2023-08-01T06:17:21;8.70;;;3.28;;
68188;SDS011;66299;47.514;19.218;2023-08-01T06:19:49;11.80;;;3.60;;
68188;SDS011;66299;47.514;19.218;2023-08-01T06:24:53;13.25;;;3.53;;
68188;SDS011;66299;47.514;19.218;2023-08-01T06:27:21;15.20;;;3.20;;
68188;SDS011;66299;47.514;19.218;2023-08-01T06:29:51;13.20;;;3.80;;
68188;SDS011;66299;47.514;19.218;2023-08-01T06:32:22;10.98;;;3.38;;
68188;SDS011;66299;47.514;19.218;2023-08-01T06:34:56;12.02;;;3.42;;
68188;SDS011;66299;47.514;19.218;2023-08-01T06:37:25;11.07;;;3.30;;
68188;SDS011;66299;47.514;19.218;2023-08-01T06:39:57;10.63;;;3.03;;
68188;SDS011;66299;47.514;19.218;2023-08-01T06:42:27;10.15;;;3.30;;
68188;SDS011;66299;47.514;19.218;2023-08-01T06:44:58;12.88;;;3.08;;
68188;SDS011;66299;47.514;19.218;2023-08-01T06:47:26;10.02;;;3.13;;
68188;SDS011;66299;47.514;19.218;2023-08-01T06:49:56;11.18;;;3.33;;
68188;SDS011;66299;47.514;19.218;2023-08-01T06:52:26;11.50;;;3.28;;
68188;SDS011;66299;47.514;19.218;2023-08-01T06:54:54;8.70;;;2.92;;
68188;SDS011;66299;47.514;19.218;2023-08-01T06:57:24;10.98;;;3.03;;
68188;SDS011;66299;47.514;19.218;2023-08-01T06:59:54;9.27;;;3.00;;
68188;SDS011;66299;47.514;19.218;2023-08-01T07:02:23;11.32;;;3.00;;
68188;SDS011;66299;47.514;19.218;2023-08-01T07:04:52;12.65;;;3.20;;
68188;SDS011;66299;47.514;19.218;2023-08-01T07:07:22;9.60;;;2.97;;
68188;SDS011;66299;47.514;19.218;2023-08-01T07:09:51;14.80;;;3.17;;
68188;SDS011;66299;47.514;19.218;2023-08-01T07:12:26;15.80;;;3.22;;
68188;SDS011;66299;47.514;19.218;2023-08-01T07:14:55;11.18;;;3.17;;
68188;SDS011;66299;47.514;19.218;2023-08-01T07:17:28;11.27;;;3.00;;
68188;SDS011;66299;47.514;19.218;2023-08-01T07:19:59;20.27;;;3.20;;
68188;SDS011;66299;47.514;19.218;2023-08-01T07:22:28;14.35;;;3.30;;
68188;SDS011;66299;47.514;19.218;2023-08-01T07:24:57;10.15;;;2.80;;
68188;SDS011;66299;47.514;19.218;2023-08-01T07:27:29;15.40;;;3.13;;
68188;SDS011;66299;47.514;19.218;2023-08-01T07:29:58;13.80;;;2.87;;
68188;SDS011;66299;47.514;19.218;2023-08-01T07:32:26;9.90;;;3.00;;
68188;SDS011;66299;47.514;19.218;2023-08-01T07:34:58;12.82;;;3.03;;
68188;SDS011;66299;47.514;19.218;2023-08-01T07:37:26;11.32;;;3.05;;
68188;SDS011;66299;47.514;19.218;2023-08-01T07:39:57;8.80;;;3.00;;
68188;SDS011;66299;47.514;19.218;2023-08-01T07:42:26;10.32;;;2.80;;
68188;SDS011;66299;47.514;19.218;2023-08-01T07:44:57;10.30;;;2.70;;
68188;SDS011;66299;47.514;19.218;2023-08-01T07:47:27;10.85;;;2.63;;
68188;SDS011;66299;47.514;19.218;2023-08-01T07:49:57;10.80;;;2.90;;
68188;SDS011;66299;47.514;19.218;2023-08-01T07:52:26;7.18;;;2.50;;
68188;SDS011;66299;47.514;19.218;2023-08-01T07:54:58;7.65;;;2.70;;
68188;SDS011;66299;47.514;19.218;2023-08-01T07:57:27;11.82;;;2.85;;
68188;SDS011;66299;47.514;19.218;2023-08-01T08:00:03;7.78;;;2.90;;
68188;SDS011;66299;47.514;19.218;2023-08-01T08:02:33;9.02;;;2.70;;
68188;SDS011;66299;47.514;19.218;2023-08-01T08:05:08;11.88;;;2.70;;
68188;SDS011;66299;47.514;19.218;2023-08-01T08:07:41;10.15;;;2.70;;
68188;SDS011;66299;47.514;19.218;2023-08-01T08:10:13;9.27;;;2.72;;
68188;SDS011;66299;47.514;19.218;2023-08-01T08:12:46;8.15;;;2.45;;
68188;SDS011;66299;47.514;19.218;2023-08-01T08:15:19;8.70;;;2.40;;
68188;SDS011;66299;47.514;19.218;2023-08-01T08:17:50;8.15;;;2.60;;
68188;SDS011;66299;47.514;19.218;2023-08-01T08:20:20;8.88;;;2.60;;
68188;SDS011;66299;47.514;19.218;2023-08-01T08:22:52;13.95;;;3.00;;
68188;SDS011;66299;47.514;19.218;2023-08-01T08:25:24;8.18;;;2.75;;
68188;SDS011;66299;47.514;19.218;2023-08-01T08:27:56;15.10;;;2.70;;
68188;SDS011;66299;47.514;19.218;2023-08-01T08:30:25;34.03;;;3.55;;
68188;SDS011;66299;47.514;19.218;2023-08-01T08:32:58;8.40;;;2.53;;
68188;SDS011;66299;47.514;19.218;2023-08-01T08:35:33;15.82;;;2.55;;
68188;SDS011;66299;47.514;19.218;2023-08-01T08:38:03;10.60;;;2.58;;
68188;SDS011;66299;47.514;19.218;2023-08-01T08:40:37;8.05;;;2.60;;
68188;SDS011;66299;47.514;19.218;2023-08-01T08:43:10;24.25;;;3.70;;
68188;SDS011;66299;47.514;19.218;2023-08-01T08:45:44;10.73;;;2.50;;
68188;SDS011;66299;47.514;19.218;2023-08-01T08:48:17;8.90;;;2.50;;
68188;SDS011;66299;47.514;19.218;2023-08-01T08:50:48;11.57;;;2.55;;
68188;SDS011;66299;47.514;19.218;2023-08-01T08:53:21;9.43;;;2.72;;
68188;SDS011;66299;47.514;19.218;2023-08-01T08:55:54;34.20;;;4.97;;
68188;SDS011;66299;47.514;19.218;2023-08-01T08:58:26;11.40;;;2.60;;
68188;SDS011;66299;47.514;19.218;2023-08-01T09:00:57;14.32;;;2.85;;
68188;SDS011;66299;47.514;19.218;2023-08-01T09:03:30;10.73;;;2.70;;
68188;SDS011;66299;47.514;19.218;2023-08-01T09:06:04;13.93;;;2.50;;
68188;SDS011;66299;47.514;19.218;2023-08-01T09:08:37;9.68;;;2.40;;
68188;SDS011;66299;47.514;19.218;2023-08-01T09:11:17;10.60;;;2.50;;
68188;SDS011;66299;47.514;19.218;2023-08-01T09:13:48;11.68;;;2.40;;
68188;SDS011;66299;47.514;19.218;2023-08-01T09:16:19;8.65;;;2.65;;
68188;SDS011;66299;47.514;19.218;2023-08-01T09:18:50;9.13;;;2.40;;
68188;SDS011;66299;47.514;19.218;2023-08-01T09:21:22;6.80;;;2.50;;
68188;SDS011;66299;47.514;19.218;2023-08-01T09:23:53;9.00;;;2.90;;
68188;SDS011;66299;47.514;19.218;2023-08-01T09:26:21;9.65;;;2.88;;
68188;SDS011;66299;47.514;19.218;2023-08-01T09:28:58;9.13;;;2.53;;
68188;SDS011;66299;47.514;19.218;2023-08-01T09:31:31;20.65;;;2.70;;
68188;SDS011;66299;47.514;19.218;2023-08-01T09:34:02;18.70;;;2.90;;
68188;SDS011;66299;47.514;19.218;2023-08-01T09:36:32;15.07;;;2.67;;
68188;SDS011;66299;47.514;19.218;2023-08-01T09:39:02;24.60;;;3.00;;
68188;SDS011;66299;47.514;19.218;2023-08-01T09:41:34;17.85;;;2.60;;
68188;SDS011;66299;47.514;19.218;2023-08-01T09:44:09;48.95;;;3.83;;
68188;SDS011;66299;47.514;19.218;2023-08-01T09:46:41;12.30;;;2.58;;
68188;SDS011;66299;47.514;19.218;2023-08-01T09:49:22;12.02;;;2.40;;
68188;SDS011;66299;47.514;19.218;2023-08-01T09:51:53;12.35;;;2.47;;
68188;SDS011;66299;47.514;19.218;2023-08-01T09:54:27;12.82;;;2.70;;
68188;SDS011;66299;47.514;19.218;2023-08-01T09:56:59;9.63;;;2.63;;
68188;SDS011;66299;47.514;19.218;2023-08-01T09:59:34;17.73;;;3.00;;
68188;SDS011;66299;47.514;19.218;2023-08-01T10:02:10;10.18;;;2.63;;
68188;SDS011;66299;47.514;19.218;2023-08-01T10:04:49;15.57;;;2.60;;
68188;SDS011;66299;47.514;19.218;2023-08-01T10:07:20;11.43;;;2.70;;
68188;SDS011;66299;47.514;19.218;2023-08-01T10:09:57;8.70;;;2.50;;
68188;SDS011;66299;47.514;19.218;2023-08-01T10:12:28;10.10;;;2.60;;
68188;SDS011;66299;47.514;19.218;2023-08-01T10:15:07;11.13;;;2.55;;
68188;SDS011;66299;47.514;19.218;2023-08-01T10:17:38;8.75;;;2.60;;
68188;SDS011;66299;47.514;19.218;2023-08-01T10:20:08;7.75;;;2.40;;
68188;SDS011;66299;47.514;19.218;2023-08-01T10:22:41;13.85;;;2.70;;
68188;SDS011;66299;47.514;19.218;2023-08-01T10:25:16;41.28;;;3.97;;
68188;SDS011;66299;47.514;19.218;2023-08-01T10:27:57;12.05;;;2.60;;
68188;SDS011;66299;47.514;19.218;2023-08-01T10:30:35;10.90;;;2.40;;
68188;SDS011;66299;47.514;19.218;2023-08-01T10:33:07;9.95;;;2.50;;
68188;SDS011;66299;47.514;19.218;2023-08-01T10:35:39;8.60;;;2.75;;
68188;SDS011;66299;47.514;19.218;2023-08-01T10:38:11;9.82;;;2.60;;
68188;SDS011;66299;47.514;19.218;2023-08-01T10:40:43;31.00;;;2.85;;
68188;SDS011;66299;47.514;19.218;2023-08-01T10:43:21;8.52;;;2.40;;
68188;SDS011;66299;47.514;19.218;2023-08-01T10:46:04;7.57;;;2.45;;
68188;SDS011;66299;47.514;19.218;2023-08-01T10:48:48;9.35;;;2.38;;
68188;SDS011;66299;47.514;19.218;2023-08-01T10:51:19;7.57;;;2.40;;
68188;SDS011;66299;47.514;19.218;2023-08-01T10:53:49;8.83;;;2.30;;
68188;SDS011;66299;47.514;19.218;2023-08-01T10:56:19;9.68;;;2.38;;
68188;SDS011;66299;47.514;19.218;2023-08-01T10:58:49;9.43;;;2.40;;
68188;SDS011;66299;47.514;19.218;2023-08-01T11:01:23;7.20;;;2.30;;
68188;SDS011;66299;47.514;19.218;2023-08-01T11:03:54;6.60;;;2.20;;
68188;SDS011;66299;47.514;19.218;2023-08-01T11:06:25;12.70;;;2.70;;
68188;SDS011;66299;47.514;19.218;2023-08-01T11:08:57;14.05;;;2.50;;
68188;SDS011;66299;47.514;19.218;2023-08-01T11:11:28;7.75;;;2.40;;
68188;SDS011;66299;47.514;19.218;2023-08-01T11:13:57;9.32;;;2.53;;
68188;SDS011;66299;47.514;19.218;2023-08-01T11:16:32;6.72;;;2.35;;
68188;SDS011;66299;47.514;19.218;2023-08-01T11:19:02;10.10;;;2.50;;
68188;SDS011;66299;47.514;19.218;2023-08-01T11:21:33;9.83;;;2.40;;
68188;SDS011;66299;47.514;19.218;2023-08-01T11:24:06;8.75;;;2.30;;
68188;SDS011;66299;47.514;19.218;2023-08-01T11:26:37;7.55;;;2.22;;
68188;SDS011;66299;47.514;19.218;2023-08-01T11:29:17;11.57;;;2.30;;
68188;SDS011;66299;47.514;19.218;2023-08-01T11:31:55;9.45;;;2.30;;
68188;SDS011;66299;47.514;19.218;2023-08-01T11:34:27;8.15;;;2.50;;
68188;SDS011;66299;47.514;19.218;2023-08-01T11:36:56;9.57;;;2.33;;
68188;SDS011;66299;47.514;19.218;2023-08-01T11:41:58;7.55;;;2.42;;
68188;SDS011;66299;47.514;19.218;2023-08-01T11:44:32;8.85;;;2.25;;
68188;SDS011;66299;47.514;19.218;2023-08-01T11:47:09;12.38;;;2.30;;
68188;SDS011;66299;47.514;19.218;2023-08-01T11:49:44;7.78;;;2.50;;
68188;SDS011;66299;47.514;19.218;2023-08-01T11:52:22;10.48;;;2.30;;
68188;SDS011;66299;47.514;19.218;2023-08-01T11:54:52;7.60;;;2.20;;
68188;SDS011;66299;47.514;19.218;2023-08-01T11:57:24;10.10;;;2.53;;
68188;SDS011;66299;47.514;19.218;2023-08-01T11:59:55;7.45;;;2.20;;
68188;SDS011;66299;47.514;19.218;2023-08-01T12:02:28;12.00;;;2.55;;
68188;SDS011;66299;47.514;19.218;2023-08-01T12:04:59;10.80;;;2.40;;
68188;SDS011;66299;47.514;19.218;2023-08-01T12:07:30;30.23;;;4.05;;
68188;SDS011;66299;47.514;19.218;2023-08-01T12:10:03;21.73;;;2.65;;
68188;SDS011;66299;47.514;19.218;2023-08-01T12:12:42;10.07;;;2.40;;
68188;SDS011;66299;47.514;19.218;2023-08-01T12:15:17;12.95;;;2.50;;
68188;SDS011;66299;47.514;19.218;2023-08-01T12:17:47;9.70;;;2.30;;
68188;SDS011;66299;47.514;19.218;2023-08-01T12:20:18;11.73;;;2.90;;
68188;SDS011;66299;47.514;19.218;2023-08-01T12:22:48;10.23;;;2.30;;
68188;SDS011;66299;47.514;19.218;2023-08-01T12:25:18;11.00;;;2.63;;
68188;SDS011;66299;47.514;19.218;2023-08-01T12:27:48;8.50;;;2.33;;
68188;SDS011;66299;47.514;19.218;2023-08-01T12:30:19;16.35;;;2.58;;
68188;SDS011;66299;47.514;19.218;2023-08-01T12:32:51;7.55;;;2.35;;
68188;SDS011;66299;47.514;19.218;2023-08-01T12:35:20;12.20;;;2.28;;
68188;SDS011;66299;47.514;19.218;2023-08-01T12:37:50;6.88;;;2.22;;
68188;SDS011;66299;47.514;19.218;2023-08-01T12:40:23;8.27;;;2.25;;
68188;SDS011;66299;47.514;19.218;2023-08-01T12:42:54;11.27;;;2.55;;
68188;SDS011;66299;47.514;19.218;2023-08-01T12:47:58;8.32;;;2.30;;
68188;SDS011;66299;47.514;19.218;2023-08-01T12:50:27;10.75;;;2.40;;
68188;SDS011;66299;47.514;19.218;2023-08-01T12:53:04;8.05;;;2.22;;
68188;SDS011;66299;47.514;19.218;2023-08-01T12:55:42;9.18;;;2.30;;
68188;SDS011;66299;47.514;19.218;2023-08-01T12:58:13;9.30;;;2.15;;
68188;SDS011;66299;47.514;19.218;2023-08-01T13:00:43;7.93;;;2.38;;
68188;SDS011;66299;47.514;19.218;2023-08-01T13:03:17;7.32;;;2.30;;
68188;SDS011;66299;47.514;19.218;2023-08-01T13:05:46;11.90;;;2.35;;
68188;SDS011;66299;47.514;19.218;2023-08-01T13:08:14;9.65;;;2.30;;
68188;SDS011;66299;47.514;19.218;2023-08-01T13:10:47;6.88;;;2.20;;
68188;SDS011;66299;47.514;19.218;2023-08-01T13:13:19;11.10;;;2.30;;
68188;SDS011;66299;47.514;19.218;2023-08-01T13:15:49;17.15;;;2.53;;
68188;SDS011;66299;47.514;19.218;2023-08-01T13:18:27;7.78;;;2.35;;
68188;SDS011;66299;47.514;19.218;2023-08-01T13:20:56;40.00;;;3.33;;
68188;SDS011;66299;47.514;19.218;2023-08-01T13:23:31;19.10;;;2.80;;
68188;SDS011;66299;47.514;19.218;2023-08-01T13:26:00;13.73;;;2.25;;
68188;SDS011;66299;47.514;19.218;2023-08-01T13:28:41;8.13;;;2.17;;
68188;SDS011;66299;47.514;19.218;2023-08-01T13:31:12;8.40;;;2.33;;
68188;SDS011;66299;47.514;19.218;2023-08-01T13:33:42;7.25;;;2.28;;
68188;SDS011;66299;47.514;19.218;2023-08-01T13:38:40;12.90;;;2.03;;
68188;SDS011;66299;47.514;19.218;2023-08-01T13:41:09;13.40;;;2.42;;
68188;SDS011;66299;47.514;19.218;2023-08-01T13:43:41;14.52;;;2.00;;
68188;SDS011;66299;47.514;19.218;2023-08-01T13:46:11;22.38;;;2.20;;
68188;SDS011;66299;47.514;19.218;2023-08-01T13:48:56;9.98;;;2.33;;
68188;SDS011;66299;47.514;19.218;2023-08-01T13:51:26;13.32;;;2.55;;
68188;SDS011;66299;47.514;19.218;2023-08-01T13:53:58;9.52;;;2.47;;
68188;SDS011;66299;47.514;19.218;2023-08-01T13:56:27;12.95;;;2.17;;
68188;SDS011;66299;47.514;19.218;2023-08-01T13:58:56;8.07;;;2.08;;
68188;SDS011;66299;47.514;19.218;2023-08-01T14:01:25;9.77;;;2.30;;
68188;SDS011;66299;47.514;19.218;2023-08-01T14:03:53;11.52;;;2.20;;
68188;SDS011;66299;47.514;19.218;2023-08-01T14:06:23;49.78;;;4.00;;
68188;SDS011;66299;47.514;19.218;2023-08-01T14:08:52;14.88;;;2.42;;
68188;SDS011;66299;47.514;19.218;2023-08-01T14:11:20;10.25;;;2.25;;
68188;SDS011;66299;47.514;19.218;2023-08-01T14:13:50;12.38;;;2.10;;
68188;SDS011;66299;47.514;19.218;2023-08-01T14:16:23;7.07;;;2.10;;
68188;SDS011;66299;47.514;19.218;2023-08-01T14:18:53;7.85;;;2.10;;
68188;SDS011;66299;47.514;19.218;2023-08-01T14:21:22;11.77;;;2.35;;
68188;SDS011;66299;47.514;19.218;2023-08-01T14:23:52;7.88;;;2.03;;
68188;SDS011;66299;47.514;19.218;2023-08-01T14:26:24;11.63;;;2.30;;
68188;SDS011;66299;47.514;19.218;2023-08-01T14:28:52;10.43;;;2.28;;
68188;SDS011;66299;47.514;19.218;2023-08-01T14:31:21;8.50;;;2.10;;
68188;SDS011;66299;47.514;19.218;2023-08-01T14:36:24;11.23;;;2.28;;
68188;SDS011;66299;47.514;19.218;2023-08-01T14:38:54;9.85;;;2.15;;
68188;SDS011;66299;47.514;19.218;2023-08-01T14:41:32;9.10;;;2.05;;
68188;SDS011;66299;47.514;19.218;2023-08-01T14:44:25;9.68;;;2.20;;
68188;SDS011;66299;47.514;19.218;2023-08-01T14:46:55;8.67;;;2.17;;
68188;SDS011;66299;47.514;19.218;2023-08-01T14:49:24;7.85;;;2.08;;
68188;SDS011;66299;47.514;19.218;2023-08-01T14:51:58;9.25;;;2.30;;
68188;SDS011;66299;47.514;19.218;2023-08-01T14:54:30;8.75;;;2.20;;
68188;SDS011;66299;47.514;19.218;2023-08-01T14:57:07;9.38;;;2.17;;
68188;SDS011;66299;47.514;19.218;2023-08-01T14:59:36;8.98;;;2.13;;
68188;SDS011;66299;47.514;19.218;2023-08-01T15:02:06;6.22;;;2.03;;